createdAt,value
2023-03-29T00:00:39.185Z,59.20
2023-03-29T00:03:06.940Z,58.90
2023-03-29T00:05:35.197Z,59.88
2023-03-29T00:08:04.395Z,59.61
2023-03-29T00:10:34.588Z,59.56
2023-03-29T00:13:03.121Z,59.95
2023-03-29T00:15:30.814Z,60.38
2023-03-29T00:17:58.422Z,60.11
2023-03-29T00:20:26.091Z,60.13
2023-03-29T00:22:53.591Z,60.23
2023-03-29T00:25:21.404Z,60.52
2023-03-29T00:27:49.027Z,61.37
2023-03-29T00:30:17.538Z,61.34
2023-03-29T00:32:46.103Z,60.51
2023-03-29T00:35:13.655Z,60.84
2023-03-29T00:37:41.417Z,61.33
2023-03-29T00:40:11.744Z,61.20
2023-03-29T00:42:39.256Z,61.89
2023-03-29T00:45:25.228Z,61.47
2023-03-29T00:48:02.264Z,62.76
2023-03-29T00:50:31.508Z,61.81
2023-03-29T00:53:06.828Z,61.53
2023-03-29T00:56:01.709Z,60.96
2023-03-29T00:58:41.904Z,61.14
2023-03-29T01:01:19.648Z,61.20
2023-03-29T01:03:58.415Z,61.64
2023-03-29T01:06:29.656Z,61.71
2023-03-29T01:09:01.703Z,61.96
2023-03-29T01:11:36.389Z,60.93
2023-03-29T01:14:19.465Z,60.27
2023-03-29T01:16:47.777Z,59.71
2023-03-29T01:19:21.524Z,61.61
2023-03-29T01:22:03.720Z,61.36
2023-03-29T01:24:55.719Z,63.17
2023-03-29T01:28:04.111Z,62.78
2023-03-29T01:30:44.099Z,63.00
2023-03-29T01:33:23.596Z,63.30
2023-03-29T01:36:16.573Z,63.94
2023-03-29T01:38:54.505Z,64.66
2023-03-29T01:41:23.633Z,64.19
2023-03-29T01:43:57.246Z,62.50
2023-03-29T01:46:41.888Z,62.12
2023-03-29T01:49:27.518Z,61.81
2023-03-29T01:52:27.745Z,61.68
2023-03-29T01:55:08.214Z,60.85
2023-03-29T01:57:40.078Z,60.89
2023-03-29T02:00:11.452Z,62.33
2023-03-29T02:02:44.025Z,63.14
2023-03-29T02:05:17.740Z,62.59
2023-03-29T02:07:47.571Z,63.67
2023-03-29T02:10:16.833Z,64.93
2023-03-29T02:12:44.384Z,66.43
2023-03-29T02:15:18.859Z,65.19
2023-03-29T02:17:48.156Z,66.74
2023-03-29T02:20:24.191Z,65.50
2023-03-29T02:23:18.685Z,65.97
2023-03-29T02:25:47.252Z,66.48
2023-03-29T02:28:15.387Z,66.16
2023-03-29T02:30:59.791Z,64.04
2023-03-29T02:33:35.011Z,63.86
2023-03-29T02:36:18.502Z,62.49
2023-03-29T02:38:46.411Z,61.45
2023-03-29T02:41:16.566Z,60.88
2023-03-29T02:43:46.874Z,61.35
2023-03-29T02:46:16.567Z,62.57
2023-03-29T02:48:47.164Z,62.13
2023-03-29T02:51:24.357Z,62.04
2023-03-29T02:54:05.003Z,62.98
2023-03-29T02:56:56.825Z,63.20
2023-03-29T02:59:24.442Z,63.71
2023-03-29T03:01:52.953Z,65.83
2023-03-29T03:04:21.090Z,65.40
2023-03-29T03:06:51.286Z,65.67
2023-03-29T03:09:19.773Z,64.47
2023-03-29T03:11:48.287Z,65.28
2023-03-29T03:14:16.761Z,65.35
2023-03-29T03:16:44.624Z,66.63
2023-03-29T03:19:12.273Z,65.61
2023-03-29T03:21:39.797Z,65.20
2023-03-29T03:24:07.755Z,65.20
2023-03-29T03:26:36.073Z,65.15
2023-03-29T03:29:06.208Z,63.58
2023-03-29T03:31:56.971Z,63.35
2023-03-29T03:34:43.639Z,64.41
2023-03-29T03:37:15.492Z,61.94
2023-03-29T03:39:43.506Z,63.53
2023-03-29T03:42:11.284Z,62.33
2023-03-29T03:44:44.634Z,63.21
2023-03-29T03:47:28.272Z,64.61
2023-03-29T03:49:58.552Z,64.21
2023-03-29T03:52:27.671Z,64.15
2023-03-29T03:54:55.170Z,65.77
2023-03-29T03:57:47.973Z,65.57
2023-03-29T04:00:19.430Z,65.18
2023-03-29T04:02:56.901Z,65.70
2023-03-29T04:05:25.460Z,65.78
2023-03-29T04:07:56.614Z,65.44
2023-03-29T04:10:43.853Z,66.54
2023-03-29T04:13:15.873Z,66.29
2023-03-29T04:16:15.667Z,66.63
2023-03-29T04:18:44.056Z,66.34
2023-03-29T04:21:11.802Z,66.69
2023-03-29T04:23:39.273Z,65.60
2023-03-29T04:26:07.771Z,66.07
2023-03-29T04:28:57.756Z,66.47
2023-03-29T04:31:37.408Z,66.58
2023-03-29T04:34:31.329Z,66.22
2023-03-29T04:36:58.928Z,66.06
2023-03-29T04:39:33.828Z,65.96
2023-03-29T04:42:05.266Z,66.43
2023-03-29T04:44:34.192Z,66.07
2023-03-29T04:47:04.854Z,65.95
2023-03-29T04:49:52.572Z,65.58
2023-03-29T04:52:42.022Z,65.92
2023-03-29T04:55:10.687Z,65.65
2023-03-29T04:57:53.478Z,65.52
2023-03-29T05:00:27.680Z,66.04
2023-03-29T05:03:14.705Z,63.41
2023-03-29T05:06:06.946Z,63.31
2023-03-29T05:08:40.322Z,62.14
2023-03-29T05:11:19.859Z,62.74
2023-03-29T05:13:47.966Z,61.34
2023-03-29T05:16:16.012Z,60.80
2023-03-29T05:18:44.598Z,61.72
2023-03-29T05:21:12.071Z,60.90
2023-03-29T05:23:43.064Z,60.73
2023-03-29T05:26:30.985Z,60.78
2023-03-29T05:28:58.623Z,61.08
2023-03-29T05:31:26.705Z,59.19
2023-03-29T05:33:55.653Z,59.49
2023-03-29T05:36:23.455Z,59.59
2023-03-29T05:38:51.959Z,58.64
2023-03-29T05:41:22.788Z,58.10
2023-03-29T05:43:50.637Z,58.61
2023-03-29T05:46:18.983Z,57.84
2023-03-29T05:48:52.168Z,57.18
2023-03-29T05:51:24.437Z,57.30
2023-03-29T05:53:54.404Z,56.32
2023-03-29T05:56:22.562Z,55.31
2023-03-29T05:58:51.410Z,54.09
2023-03-29T06:01:20.562Z,53.92
2023-03-29T06:04:03.551Z,52.82
2023-03-29T06:06:39.515Z,52.40
2023-03-29T06:09:07.458Z,52.41
2023-03-29T06:11:37.805Z,51.19
2023-03-29T06:14:24.942Z,51.42
2023-03-29T06:17:02.802Z,51.11
2023-03-29T06:19:31.940Z,49.39
2023-03-29T06:22:02.200Z,49.28
2023-03-29T06:24:36.540Z,49.71
2023-03-29T06:27:11.245Z,49.75
2023-03-29T06:29:38.707Z,47.72
2023-03-29T06:32:09.288Z,49.26
2023-03-29T06:34:48.257Z,49.41
2023-03-29T06:37:40.342Z,48.83
2023-03-29T06:40:34.427Z,47.66
2023-03-29T06:43:01.889Z,47.90
2023-03-29T06:48:07.993Z,46.76
2023-03-29T06:50:37.034Z,45.21
2023-03-29T06:53:26.335Z,44.38
2023-03-29T06:55:59.820Z,43.78
2023-03-29T06:58:45.280Z,44.54
2023-03-29T07:01:37.503Z,44.61
2023-03-29T07:04:21.037Z,44.07
2023-03-29T07:07:20.517Z,43.22
2023-03-29T07:09:55.663Z,42.15
2023-03-29T07:13:00.763Z,41.25
2023-03-29T07:15:30.020Z,42.02
2023-03-29T07:18:10.332Z,41.50
2023-03-29T07:20:42.605Z,42.53
2023-03-29T07:23:10.637Z,40.41
2023-03-29T07:25:39.425Z,41.60
2023-03-29T07:28:07.539Z,39.72
2023-03-29T07:30:35.269Z,40.91
2023-03-29T07:33:14.581Z,39.27
2023-03-29T07:35:55.379Z,39.45
2023-03-29T07:38:23.114Z,39.32
2023-03-29T07:40:59.967Z,39.01
2023-03-29T07:43:48.122Z,39.58
2023-03-29T07:46:19.700Z,38.02
2023-03-29T07:48:47.605Z,37.83
2023-03-29T07:51:16.723Z,37.95
2023-03-29T07:54:00.285Z,38.46
2023-03-29T07:56:42.268Z,37.51
2023-03-29T07:59:23.382Z,37.89
2023-03-29T08:02:13.160Z,36.13
2023-03-29T08:04:44.942Z,35.68
2023-03-29T08:07:37.746Z,36.44
2023-03-29T08:10:26.753Z,36.09
2023-03-29T08:13:29.426Z,36.45
2023-03-29T08:16:15.554Z,35.41
2023-03-29T08:18:51.122Z,35.50
2023-03-29T08:21:20.507Z,34.63
2023-03-29T08:23:50.210Z,33.24
2023-03-29T08:26:25.956Z,34.77
2023-03-29T08:28:54.218Z,34.16
2023-03-29T08:31:24.137Z,34.01
2023-03-29T08:33:53.232Z,33.13
2023-03-29T08:36:40.254Z,31.36
2023-03-29T08:39:19.674Z,32.69
2023-03-29T08:42:38.755Z,33.08
2023-03-29T08:45:31.572Z,31.98
2023-03-29T08:48:28.642Z,31.72
2023-03-29T08:51:11.284Z,32.97
2023-03-29T08:53:46.069Z,31.86
2023-03-29T08:56:26.953Z,31.30
2023-03-29T08:58:57.091Z,31.89
2023-03-29T09:01:34.992Z,31.61
2023-03-29T09:04:18.948Z,32.04
2023-03-29T09:07:11.180Z,30.53
2023-03-29T09:09:43.996Z,30.89
2023-03-29T09:13:14.632Z,31.95
2023-03-29T09:16:08.549Z,30.33
2023-03-29T09:19:18.861Z,31.10
2023-03-29T09:21:51.694Z,30.95
2023-03-29T09:24:47.489Z,31.03
2023-03-29T09:27:28.065Z,30.48
2023-03-29T09:30:17.230Z,31.37
2023-03-29T09:33:29.917Z,30.71
2023-03-29T09:36:54.393Z,30.65
2023-03-29T09:39:23.442Z,31.83
2023-03-29T09:42:09.307Z,30.45
2023-03-29T09:44:54.577Z,30.05
2023-03-29T09:47:44.847Z,30.52
2023-03-29T09:50:30.848Z,31.02
2023-03-29T09:53:01.560Z,30.38
2023-03-29T09:55:36.494Z,29.81
2023-03-29T09:58:18.839Z,30.56
2023-03-29T10:00:58.067Z,30.57
2023-03-29T10:03:29.549Z,30.78
2023-03-29T10:06:08.625Z,30.97
2023-03-29T10:08:42.381Z,31.70
2023-03-29T10:11:31.952Z,30.70
2023-03-29T10:14:13.329Z,28.97
2023-03-29T10:16:46.348Z,29.43
2023-03-29T10:19:24.329Z,29.75
2023-03-29T10:21:54.023Z,29.17
2023-03-29T10:24:24.511Z,29.57
2023-03-29T10:26:59.240Z,29.28
2023-03-29T10:29:27.943Z,28.76
2023-03-29T10:31:58.415Z,28.12
2023-03-29T10:34:28.136Z,29.25
2023-03-29T10:37:01.181Z,29.19
2023-03-29T10:39:33.929Z,27.96
2023-03-29T10:42:05.534Z,29.41
2023-03-29T10:44:36.611Z,28.97
2023-03-29T10:47:17.620Z,28.77
2023-03-29T10:49:58.711Z,28.38
2023-03-29T10:52:26.651Z,27.82
2023-03-29T10:54:56.811Z,28.33
2023-03-29T10:57:49.775Z,28.51
2023-03-29T11:00:51.120Z,28.79
2023-03-29T11:03:56.307Z,28.17
2023-03-29T11:06:37.205Z,27.64
2023-03-29T11:09:28.309Z,27.87
2023-03-29T11:12:49.671Z,28.57
2023-03-29T11:15:36.498Z,28.17
2023-03-29T11:18:37.118Z,28.24
2023-03-29T11:21:19.381Z,28.47
2023-03-29T11:24:05.134Z,28.18
2023-03-29T11:27:45.664Z,27.53
2023-03-29T11:30:21.864Z,27.46
2023-03-29T11:33:22.325Z,27.55
2023-03-29T11:36:26.733Z,26.68
2023-03-29T11:39:04.219Z,28.22
2023-03-29T11:41:40.405Z,26.49
2023-03-29T11:44:30.450Z,27.18
2023-03-29T11:47:07.284Z,25.81
2023-03-29T11:50:00.101Z,26.43
2023-03-29T11:52:59.253Z,26.71
2023-03-29T11:55:36.037Z,26.61
2023-03-29T11:58:15.771Z,25.75
2023-03-29T12:04:01.688Z,27.33
2023-03-29T12:06:37.842Z,24.52
2023-03-29T12:09:39.687Z,25.51
2023-03-29T12:12:13.139Z,22.65
2023-03-29T12:15:00.786Z,25.07
2023-03-29T12:17:37.594Z,25.00
2023-03-29T12:20:18.777Z,20.53
2023-03-29T12:22:51.087Z,20.06
2023-03-29T12:25:30.426Z,20.19
2023-03-29T12:28:19.274Z,19.49
2023-03-29T12:30:58.375Z,19.76
2023-03-29T12:33:31.906Z,18.90
2023-03-29T12:37:11.597Z,18.56
2023-03-29T12:40:25.217Z,18.86
2023-03-29T12:43:32.202Z,20.45
2023-03-29T12:46:18.253Z,20.52
2023-03-29T12:48:51.493Z,19.42
2023-03-29T12:51:31.656Z,19.16
2023-03-29T12:54:29.143Z,20.19
2023-03-29T13:00:27.927Z,19.63
2023-03-29T13:03:44.921Z,19.48
2023-03-29T13:06:13.509Z,20.31
2023-03-29T13:08:45.670Z,19.63
2023-03-29T13:11:35.532Z,18.98
2023-03-29T13:14:13.217Z,19.39
2023-03-29T13:16:42.037Z,18.13
2023-03-29T13:19:12.402Z,19.38
2023-03-29T13:22:18.249Z,19.50
2023-03-29T13:25:21.725Z,18.06
2023-03-29T13:28:23.260Z,17.31
2023-03-29T13:30:59.708Z,17.19
2023-03-29T13:34:17.205Z,18.23
2023-03-29T13:37:13.048Z,18.42
2023-03-29T13:39:53.612Z,18.31
2023-03-29T13:42:59.801Z,17.55
2023-03-29T13:45:33.016Z,17.94
2023-03-29T13:48:25.059Z,16.98
2023-03-29T13:51:07.958Z,18.04
2023-03-29T13:54:19.024Z,17.07
2023-03-29T13:57:14.572Z,17.57
2023-03-29T14:00:02.295Z,17.36
2023-03-29T14:02:50.377Z,16.44
2023-03-29T14:05:32.234Z,16.43
2023-03-29T14:08:09.834Z,17.85
2023-03-29T14:10:44.025Z,16.76
2023-03-29T14:13:18.792Z,16.64
2023-03-29T14:15:52.388Z,17.00
2023-03-29T14:18:23.966Z,16.42
2023-03-29T14:20:55.140Z,16.24
2023-03-29T14:23:30.609Z,15.35
2023-03-29T14:26:17.036Z,17.18
2023-03-29T14:28:54.002Z,16.46
2023-03-29T14:31:34.378Z,16.64
2023-03-29T14:34:05.994Z,15.69
2023-03-29T14:36:34.722Z,15.93
2023-03-29T14:39:11.550Z,15.85
2023-03-29T14:41:40.174Z,16.94
2023-03-29T14:44:08.993Z,16.05
2023-03-29T14:46:36.926Z,16.05
2023-03-29T14:49:06.261Z,16.27
2023-03-29T14:51:34.419Z,16.64
2023-03-29T14:54:04.687Z,16.19
2023-03-29T14:56:33.596Z,16.74
2023-03-29T14:59:03.970Z,16.69
2023-03-29T15:01:32.344Z,15.94
2023-03-29T15:04:08.033Z,15.95
2023-03-29T15:06:42.510Z,16.31
2023-03-29T15:09:29.242Z,16.06
2023-03-29T15:12:17.762Z,16.18
2023-03-29T15:14:47.458Z,16.64
2023-03-29T15:17:50.249Z,16.36
2023-03-29T15:20:39.098Z,17.23
2023-03-29T15:23:23.458Z,16.60
2023-03-29T15:26:07.472Z,16.20
2023-03-29T15:28:48.914Z,16.17
2023-03-29T15:31:20.849Z,17.25
2023-03-29T15:33:48.447Z,17.01
2023-03-29T15:36:16.663Z,17.43
2023-03-29T15:38:45.495Z,17.59
2023-03-29T15:41:15.462Z,18.79
2023-03-29T15:43:44.263Z,19.12
2023-03-29T15:46:16.635Z,19.94
2023-03-29T15:48:44.384Z,19.85
2023-03-29T15:51:13.054Z,19.95
2023-03-29T15:53:42.193Z,20.66
2023-03-29T15:56:15.801Z,20.93
2023-03-29T15:58:43.987Z,21.32
2023-03-29T16:01:37.305Z,21.27
2023-03-29T16:04:17.670Z,20.60
2023-03-29T16:06:48.882Z,20.60
2023-03-29T16:09:17.634Z,21.06
2023-03-29T16:11:46.490Z,20.76
2023-03-29T16:14:31.778Z,19.62
2023-03-29T16:17:02.902Z,20.75
2023-03-29T16:19:32.137Z,21.50
2023-03-29T16:22:02.354Z,21.89
2023-03-29T16:24:32.328Z,22.27
2023-03-29T16:27:03.283Z,23.36
2023-03-29T16:29:31.252Z,23.29
2023-03-29T16:31:59.283Z,23.00
2023-03-29T16:34:26.876Z,22.96
2023-03-29T16:36:54.471Z,23.16
2023-03-29T16:39:22.924Z,23.79
2023-03-29T16:41:51.318Z,24.56
2023-03-29T16:44:24.758Z,24.90
2023-03-29T16:46:57.805Z,23.93
2023-03-29T16:49:25.434Z,24.71
2023-03-29T16:51:52.918Z,24.56
2023-03-29T16:54:40.402Z,24.57
2023-03-29T16:57:10.370Z,24.88
2023-03-29T16:59:38.030Z,24.30
2023-03-29T17:02:05.493Z,24.73
2023-03-29T17:04:33.693Z,24.64
2023-03-29T17:07:01.634Z,25.04
2023-03-29T17:09:30.008Z,25.45
2023-03-29T17:11:57.568Z,25.50
2023-03-29T17:14:26.368Z,25.43
2023-03-29T17:16:54.706Z,25.18
2023-03-29T17:19:22.256Z,25.76
2023-03-29T17:21:49.743Z,26.48
2023-03-29T17:24:17.335Z,26.51
2023-03-29T17:26:45.982Z,26.57
2023-03-29T17:29:13.504Z,27.48
2023-03-29T17:31:47.712Z,28.15
2023-03-29T17:34:17.373Z,28.62
2023-03-29T17:36:46.469Z,28.79
2023-03-29T17:39:15.342Z,30.04
2023-03-29T17:41:45.466Z,29.61
2023-03-29T17:44:13.024Z,30.07
2023-03-29T17:46:40.749Z,30.15
2023-03-29T17:49:08.272Z,30.29
2023-03-29T17:51:36.288Z,30.33
2023-03-29T17:54:04.030Z,29.83
2023-03-29T17:56:32.962Z,29.73
2023-03-29T17:59:00.996Z,30.51
2023-03-29T18:01:28.556Z,29.79
2023-03-29T18:03:57.378Z,30.18
2023-03-29T18:06:31.212Z,29.86
2023-03-29T18:09:01.591Z,29.88
2023-03-29T18:11:29.516Z,30.12
2023-03-29T18:14:01.294Z,30.03
2023-03-29T18:16:29.674Z,30.10
2023-03-29T18:18:57.243Z,30.25
2023-03-29T18:21:26.150Z,30.73
2023-03-29T18:23:57.000Z,30.06
2023-03-29T18:26:26.700Z,30.36
2023-03-29T18:28:54.399Z,29.64
2023-03-29T18:31:22.031Z,29.74
2023-03-29T18:33:50.216Z,31.01
2023-03-29T18:36:17.735Z,31.54
2023-03-29T18:38:46.151Z,29.47
2023-03-29T18:41:14.830Z,30.42
2023-03-29T18:43:43.274Z,30.59
2023-03-29T18:46:10.875Z,31.30
2023-03-29T18:48:42.672Z,31.87
2023-03-29T18:51:14.986Z,31.37
2023-03-29T18:53:44.478Z,32.40
2023-03-29T18:56:15.248Z,30.10
2023-03-29T18:58:43.021Z,30.75
2023-03-29T19:01:11.288Z,32.49
2023-03-29T19:03:39.108Z,32.88
2023-03-29T19:06:08.233Z,33.76
2023-03-29T19:08:38.745Z,32.86
2023-03-29T19:11:09.931Z,32.88
2023-03-29T19:13:37.719Z,33.60
2023-03-29T19:16:06.390Z,32.77
2023-03-29T19:18:34.723Z,32.67
2023-03-29T19:21:03.551Z,34.61
2023-03-29T19:23:31.516Z,33.43
2023-03-29T19:26:02.571Z,33.69
2023-03-29T19:28:31.202Z,33.46
2023-03-29T19:31:01.083Z,33.45
2023-03-29T19:33:29.529Z,33.65
2023-03-29T19:35:57.088Z,34.08
2023-03-29T19:38:24.768Z,36.69
2023-03-29T19:40:54.246Z,33.67
2023-03-29T19:43:21.952Z,33.89
2023-03-29T19:45:53.675Z,33.56
2023-03-29T19:48:22.995Z,32.76
2023-03-29T19:50:52.028Z,33.11
2023-03-29T19:53:22.152Z,35.26
2023-03-29T19:55:54.970Z,34.88
2023-03-29T19:58:22.543Z,34.73
2023-03-29T20:00:53.605Z,33.55
2023-03-29T20:03:21.848Z,34.14
2023-03-29T20:05:49.571Z,34.27
2023-03-29T20:08:17.095Z,34.29
2023-03-29T20:10:44.593Z,34.80
2023-03-29T20:13:12.026Z,33.67
2023-03-29T20:15:39.845Z,35.21
2023-03-29T20:18:08.052Z,36.31
2023-03-29T20:20:38.821Z,35.96
2023-03-29T20:23:08.137Z,36.56
2023-03-29T20:25:40.848Z,36.10
2023-03-29T20:28:08.588Z,37.64
2023-03-29T20:30:37.736Z,38.78
2023-03-29T20:33:05.720Z,37.54
2023-03-29T20:35:34.508Z,38.85
2023-03-29T20:38:02.612Z,38.50
2023-03-29T20:40:34.324Z,36.25
2023-03-29T20:43:02.132Z,36.28
2023-03-29T20:45:33.211Z,37.59
2023-03-29T20:48:08.416Z,37.55
2023-03-29T20:50:40.291Z,37.44
2023-03-29T20:53:08.861Z,37.52
2023-03-29T20:55:39.435Z,37.88
2023-03-29T20:58:07.909Z,36.78
2023-03-29T21:00:35.795Z,37.42
2023-03-29T21:03:04.030Z,36.84
2023-03-29T21:05:33.774Z,36.38
2023-03-29T21:08:02.826Z,36.37
2023-03-29T21:10:30.952Z,35.27
2023-03-29T21:13:00.317Z,34.79
2023-03-29T21:15:30.805Z,33.57
2023-03-29T21:17:58.929Z,34.20
2023-03-29T21:20:27.595Z,34.88
2023-03-29T21:22:55.174Z,33.23
2023-03-29T21:25:22.875Z,34.38
2023-03-29T21:27:50.385Z,34.64
2023-03-29T21:30:17.891Z,35.41
2023-03-29T21:32:45.392Z,36.28
2023-03-29T21:35:13.189Z,36.72
2023-03-29T21:37:40.690Z,36.84
2023-03-29T21:40:10.699Z,36.02
2023-03-29T21:42:38.641Z,36.10
2023-03-29T21:45:06.898Z,36.70
2023-03-29T21:47:34.408Z,35.85
2023-03-29T21:50:01.987Z,37.04
2023-03-29T21:52:29.628Z,38.49
2023-03-29T21:54:57.167Z,39.66
2023-03-29T21:57:24.713Z,38.53
2023-03-29T21:59:52.184Z,39.58
2023-03-29T22:02:19.695Z,39.28
2023-03-29T22:04:47.281Z,39.34
2023-03-29T22:07:14.834Z,38.37
2023-03-29T22:09:42.664Z,38.63
2023-03-29T22:12:10.737Z,41.96
2023-03-29T22:14:38.262Z,43.15
2023-03-29T22:17:06.991Z,43.60
2023-03-29T22:19:39.745Z,44.07
2023-03-29T22:22:13.996Z,42.96
2023-03-29T22:24:42.510Z,40.91
2023-03-29T22:27:11.759Z,41.21
2023-03-29T22:29:39.494Z,41.48
2023-03-29T22:32:07.023Z,41.85
2023-03-29T22:34:34.953Z,42.97
2023-03-29T22:37:02.423Z,41.41
2023-03-29T22:39:29.958Z,40.51
2023-03-29T22:41:57.555Z,41.63
2023-03-29T22:44:25.026Z,43.47
2023-03-29T22:46:52.626Z,43.58
2023-03-29T22:49:20.358Z,43.11
2023-03-29T22:51:47.827Z,42.86
2023-03-29T22:54:15.311Z,42.23
2023-03-29T22:56:42.848Z,40.81
2023-03-29T22:59:10.563Z,40.86
2023-03-29T23:01:38.169Z,42.44
2023-03-29T23:04:06.337Z,42.55
2023-03-29T23:06:33.983Z,43.91
2023-03-29T23:09:01.697Z,43.42
2023-03-29T23:11:29.187Z,44.10
2023-03-29T23:13:56.641Z,44.21
2023-03-29T23:16:24.548Z,44.39
2023-03-29T23:18:52.085Z,45.45
2023-03-29T23:21:19.529Z,44.84
2023-03-29T23:23:47.181Z,44.89
2023-03-29T23:26:14.840Z,44.46
2023-03-29T23:28:42.503Z,43.83
2023-03-29T23:31:18.534Z,44.82
2023-03-29T23:33:49.488Z,45.81
2023-03-29T23:36:19.528Z,45.51
2023-03-29T23:38:48.779Z,47.18
2023-03-29T23:41:17.772Z,45.57
2023-03-29T23:43:47.453Z,44.13
2023-03-29T23:46:18.980Z,47.28
2023-03-29T23:48:51.464Z,46.99
2023-03-29T23:51:23.075Z,42.57
2023-03-29T23:53:51.444Z,43.50
2023-03-29T23:56:18.923Z,44.58
2023-03-29T23:58:46.744Z,45.78
